Drujba — LZHX — position and weather

sailwx.info

Track history (hours):
 
Tides and Currents Weather Stations Pressure Air Temp Water Temp Dewpoint Dewpoint Depression Visibility Wind Speed Wind Dir Waves Ship Positions

Drujba

Last reported at 2017-Dec-12 22:37 UTC. Time now 2017-Dec-15 17:56 UTC.
Position N 42°09' E 037°09'.

Length 150 m; draft 5.6 m.

Type: Passenger vessel. MMSI: 207277000.

Date/timePositionNaut miles runAvg speedWind from/ knotsBaromVisibWave heightAir tempDewpointWater temp
2017-Dec-12 22:37N 42°09' E 037°09'214.4
2017-Dec-12 22:29N 42°09' E 037°11'2414.5
2017-Dec-12 20:49N 42°05' E 037°43'7914.2
2017-Dec-12 15:15N 41°54' E 039°29'1713.8
2017-Dec-12 14:01N 41°52' E 039°52'013.9
2017-Dec-12 14:00N 41°52' E 039°52'1013.8
2017-Dec-12 13:17N 41°51' E 040°05'66 1.5
2017-Dec-10 18:29N 41°59' E 038°37'813.4
2017-Dec-10 17:55N 42°01' E 038°27'  
2017-Dec-03 23:03N 41°51' E 040°07'112.4
2017-Dec-03 22:57N 41°51' E 040°05'511.3
2017-Dec-03 22:30N 41°51' E 039°58'911.6
2017-Dec-03 21:44N 41°52' E 039°46'312.2
2017-Dec-03 21:30N 41°53' E 039°43'612.4
2017-Dec-03 21:00N 41°54' E 039°34'712.5
2017-Dec-03 20:29N 41°55' E 039°26'612.7
2017-Dec-03 20:00N 41°55' E 039°18'612.7
2017-Dec-03 19:30N 41°56' E 039°09'612.4
2017-Dec-03 19:00N 41°57' E 039°01'612.2
2017-Dec-03 18:30N 41°58' E 038°53'612.7
2017-Dec-03 18:00N 41°59' E 038°44'813.2
2017-Dec-03 17:22N 41°60' E 038°33'513.2
2017-Dec-03 17:00N 42°00' E 038°27'713.4
2017-Dec-03 16:30N 42°01' E 038°18'713.3
2017-Dec-03 16:00N 42°02' E 038°09'713.2
2017-Dec-03 15:30N 42°03' E 038°00'713.3
2017-Dec-03 15:00N 42°04' E 037°51'713.2
2017-Dec-03 14:30N 42°05' E 037°42'612.3
2017-Dec-03 14:00N 42°06' E 037°34'612.1
2017-Dec-03 13:30N 42°06' E 037°26'612.3
2017-Dec-03 13:00N 42°07' E 037°18'612.6
2017-Dec-03 12:30N 42°08' E 037°10'713.0
2017-Dec-03 12:00N 42°09' E 037°01'713.2
2017-Dec-03 11:30N 42°09' E 036°52'612.9
2017-Dec-03 11:00N 42°10' E 036°43'712.7
2017-Dec-03 10:29N 42°11' E 036°34'  
Track history (hours):
 
Tides and Currents Weather Stations Pressure Air Temp Water Temp Dewpoint Dewpoint Depression Visibility Wind Speed Wind Dir Waves Ship Positions

Drujba

Last reported at 2017-Dec-12 22:37 UTC. Time now 2017-Dec-15 17:56 UTC.
Position N 42°09' E 037°09'.

Length 150 m; draft 5.6 m.

Type: Passenger vessel. MMSI: 207277000.

Date/timePositionNaut miles runAvg speedWind from/ knotsBaromVisibWave heightAir tempDewpointWater temp
2017-Dec-12 22:37N 42°09' E 037°09'214.4
2017-Dec-12 22:29N 42°09' E 037°11'2414.5
2017-Dec-12 20:49N 42°05' E 037°43'7914.2
2017-Dec-12 15:15N 41°54' E 039°29'1713.8
2017-Dec-12 14:01N 41°52' E 039°52'013.9
2017-Dec-12 14:00N 41°52' E 039°52'1013.8
2017-Dec-12 13:17N 41°51' E 040°05'66 1.5
2017-Dec-10 18:29N 41°59' E 038°37'813.4
2017-Dec-10 17:55N 42°01' E 038°27'  
2017-Dec-03 23:03N 41°51' E 040°07'112.4
2017-Dec-03 22:57N 41°51' E 040°05'511.3
2017-Dec-03 22:30N 41°51' E 039°58'911.6
2017-Dec-03 21:44N 41°52' E 039°46'312.2
2017-Dec-03 21:30N 41°53' E 039°43'612.4
2017-Dec-03 21:00N 41°54' E 039°34'712.5
2017-Dec-03 20:29N 41°55' E 039°26'612.7
2017-Dec-03 20:00N 41°55' E 039°18'612.7
2017-Dec-03 19:30N 41°56' E 039°09'612.4
2017-Dec-03 19:00N 41°57' E 039°01'612.2
2017-Dec-03 18:30N 41°58' E 038°53'612.7
2017-Dec-03 18:00N 41°59' E 038°44'813.2
2017-Dec-03 17:22N 41°60' E 038°33'513.2
2017-Dec-03 17:00N 42°00' E 038°27'713.4
2017-Dec-03 16:30N 42°01' E 038°18'713.3
2017-Dec-03 16:00N 42°02' E 038°09'713.2
2017-Dec-03 15:30N 42°03' E 038°00'713.3
2017-Dec-03 15:00N 42°04' E 037°51'713.2
2017-Dec-03 14:30N 42°05' E 037°42'612.3
2017-Dec-03 14:00N 42°06' E 037°34'612.1
2017-Dec-03 13:30N 42°06' E 037°26'612.3
2017-Dec-03 13:00N 42°07' E 037°18'612.6
2017-Dec-03 12:30N 42°08' E 037°10'713.0
2017-Dec-03 12:00N 42°09' E 037°01'713.2
2017-Dec-03 11:30N 42°09' E 036°52'612.9
2017-Dec-03 11:00N 42°10' E 036°43'712.7
2017-Dec-03 10:29N 42°11' E 036°34'  

Dump ship's entire track history